首页
METAR-TAF:

METAR-TAF

机场 :

Chesterfield Inlet, 努那武特, 加拿大

纬度: 63-20N, 经度: 090-43W, 海拔: 11米

当前天气观测

该预报发布于1小时和13分钟前的16:00 UTC
风速7节,风向西北
温度 18°C
湿度 64%
气压 1023 hPa
能見度: 24.1公里
少量云层高于8300英尺
散云层高于24000英尺

METAR: CYCS 211600Z 32007KT 15SM FEW083 SCT240 18/11 A3020 RMK AC2CI1 CI TR SLP230

时间: 12:13 (17:13 UTC)


TAF: 丢失

超过4000个机场的气象观测和天气预报(METAR&TAF报告)。

可查询的气象台以黄色和红色小点在地图上表示。

将鼠标移到小点上方,可查看气象台名称。

然后点击查看天气观测和预报。

如需切换地图:点击带黑十字的绿色按钮放大地图;点击带横线的绿色按钮缩小地图;或者点击绿色箭头查看邻近地区的地图。


METAR-TAF: